Time;durP1;ratioP1;P1;durP2;ratioP2;P2;SDS_P1;SDS_P2;PMS_P1;PMS_P2;Temp;Humidity;BMP_temperature;BMP_pressure;BME280_temperature;BME280_humidity;BME280_pressure;Samples;Min_cycle;Max_cycle;Signal;HPM_P1;HPM_P2
2022/01/13 00:01:37;;;;;;;34.43;14.10;;;;;;;;;;5036398;28;20218;-75
2022/01/13 00:04:04;;;;;;;37.10;14.73;;;;;;;;;;5037931;28;20477;-76
2022/01/13 00:06:32;;;;;;;40.10;16.10;;;;;;;;;;5038240;28;20245;-76
2022/01/13 00:09:00;;;;;;;32.93;13.67;;;;;;;;;;5042497;28;20233;-76
2022/01/13 00:11:27;;;;;;;41.83;14.60;;;;;;;;;;5039141;28;20200;-76
2022/01/13 00:14:11;;;;;;;34.00;13.77;;;;;;;;;;5040479;28;20269;-74
2022/01/13 00:16:41;;;;;;;32.33;13.20;;;;;;;;;;5038117;28;20313;-75
2022/01/13 00:19:30;;;;;;;31.00;12.47;;;;;;;;;;5038590;28;20211;-74
2022/01/13 00:22:01;;;;;;;37.37;13.77;;;;;;;;;;5038311;28;20708;-74
2022/01/13 00:24:29;;;;;;;34.30;12.80;;;;;;;;;;5037267;28;20700;-75
2022/01/13 00:27:00;;;;;;;34.70;13.40;;;;;;;;;;5036074;28;20235;-75
2022/01/13 00:29:30;;;;;;;33.07;12.90;;;;;;;;;;5038296;28;20204;-74
2022/01/13 00:31:58;;;;;;;30.40;12.77;;;;;;;;;;5034538;28;20673;-76
2022/01/13 00:34:25;;;;;;;32.57;13.03;;;;;;;;;;5040359;28;20466;-76
2022/01/13 00:36:52;;;;;;;37.70;13.73;;;;;;;;;;5035980;28;20222;-74
2022/01/13 00:39:19;;;;;;;29.50;13.50;;;;;;;;;;5037491;28;20290;-75
2022/01/13 00:41:48;;;;;;;31.73;13.43;;;;;;;;;;5044158;28;20671;-78
2022/01/13 00:44:19;;;;;;;35.73;13.50;;;;;;;;;;5040073;28;20310;-74
2022/01/13 00:46:48;;;;;;;30.53;12.77;;;;;;;;;;5035295;28;20489;-73
2022/01/13 00:49:16;;;;;;;30.47;13.23;;;;;;;;;;5039516;28;20909;-76
2022/01/13 00:51:43;;;;;;;31.10;12.30;;;;;;;;;;5040306;28;20219;-76
2022/01/13 00:54:11;;;;;;;35.80;14.03;;;;;;;;;;5039910;28;20300;-77
2022/01/13 00:56:38;;;;;;;32.20;12.67;;;;;;;;;;5042660;28;20284;-76
2022/01/13 00:59:09;;;;;;;34.70;12.63;;;;;;;;;;5040774;28;20716;-76
2022/01/13 01:01:36;;;;;;;34.53;13.77;;;;;;;;;;5042798;28;20310;-76
2022/01/13 01:04:04;;;;;;;29.83;12.33;;;;;;;;;;5042369;28;20219;-75
2022/01/13 01:06:31;;;;;;;32.50;11.70;;;;;;;;;;5042715;28;20684;-77
2022/01/13 01:08:58;;;;;;;30.70;12.00;;;;;;;;;;5039265;28;20749;-77
2022/01/13 01:11:26;;;;;;;33.77;13.63;;;;;;;;;;5042720;28;20833;-76
2022/01/13 01:13:54;;;;;;;29.63;12.60;;;;;;;;;;5041021;28;20211;-76
2022/01/13 01:16:24;;;;;;;29.00;12.77;;;;;;;;;;5042524;28;20605;-75
2022/01/13 01:18:59;;;;;;;31.90;13.00;;;;;;;;;;5040924;28;20545;-74
2022/01/13 01:21:53;;;;;;;34.83;12.90;;;;;;;;;;5041961;28;20684;-76
2022/01/13 01:27:16;;;;;;;29.90;12.37;;;;;;;;;;5039158;28;20302;-74
2022/01/13 01:29:52;;;;;;;35.37;13.20;;;;;;;;;;5042390;28;20892;-77
2022/01/13 01:32:20;;;;;;;30.83;13.07;;;;;;;;;;5040408;28;20461;-76
2022/01/13 01:34:55;;;;;;;33.53;13.63;;;;;;;;;;5038796;28;20256;-76
2022/01/13 01:37:24;;;;;;;33.13;13.33;;;;;;;;;;5042357;28;20252;-75
2022/01/13 01:39:52;;;;;;;40.97;13.50;;;;;;;;;;5042011;28;20252;-76
2022/01/13 01:42:20;;;;;;;28.50;11.97;;;;;;;;;;5038007;28;20501;-76
2022/01/13 01:44:48;;;;;;;30.87;13.00;;;;;;;;;;5038444;28;20576;-77
2022/01/13 01:47:17;;;;;;;31.13;13.27;;;;;;;;;;5044027;28;20226;-76
2022/01/13 01:49:47;;;;;;;32.83;12.83;;;;;;;;;;5034143;28;20280;-74
2022/01/13 01:52:15;;;;;;;28.43;12.40;;;;;;;;;;5042559;28;20215;-75
2022/01/13 01:54:43;;;;;;;33.00;12.60;;;;;;;;;;5041856;28;20199;-75
2022/01/13 01:57:10;;;;;;;30.73;12.13;;;;;;;;;;5038779;28;20223;-77
2022/01/13 01:59:40;;;;;;;31.07;12.90;;;;;;;;;;5039041;28;20203;-76
2022/01/13 02:02:08;;;;;;;36.50;13.53;;;;;;;;;;5039225;28;20674;-74
2022/01/13 02:04:36;;;;;;;36.93;14.13;;;;;;;;;;5040596;28;20255;-74
2022/01/13 02:07:07;;;;;;;36.20;12.93;;;;;;;;;;5044268;28;20223;-76
2022/01/13 02:09:36;;;;;;;32.93;13.47;;;;;;;;;;5035588;28;20239;-76
2022/01/13 02:12:07;;;;;;;38.87;14.53;;;;;;;;;;5038347;28;20203;-73
2022/01/13 02:14:36;;;;;;;35.00;13.13;;;;;;;;;;5034110;28;20207;-75
2022/01/13 02:17:07;;;;;;;40.40;13.57;;;;;;;;;;5038920;28;20223;-74
2022/01/13 02:19:36;;;;;;;35.17;13.60;;;;;;;;;;5040090;28;20811;-75
2022/01/13 02:22:05;;;;;;;34.97;12.80;;;;;;;;;;5039257;28;20208;-74
2022/01/13 02:24:34;;;;;;;27.73;11.67;;;;;;;;;;5037486;28;20628;-75
2022/01/13 02:27:01;;;;;;;30.27;12.80;;;;;;;;;;5043261;28;20320;-74
2022/01/13 02:29:29;;;;;;;32.73;13.57;;;;;;;;;;5039237;28;20199;-76
2022/01/13 02:31:56;;;;;;;35.83;12.73;;;;;;;;;;5041458;28;20202;-73
2022/01/13 02:34:23;;;;;;;33.13;12.37;;;;;;;;;;5036632;28;20285;-75
2022/01/13 02:36:51;;;;;;;34.40;13.00;;;;;;;;;;5040367;28;20948;-75
2022/01/13 02:39:21;;;;;;;35.70;13.63;;;;;;;;;;5041568;28;20209;-75
2022/01/13 02:41:49;;;;;;;40.50;14.47;;;;;;;;;;5041011;28;20501;-76
2022/01/13 02:44:19;;;;;;;34.10;12.50;;;;;;;;;;5043709;28;20301;-75
2022/01/13 02:47:08;;;;;;;37.00;12.87;;;;;;;;;;5038589;28;20234;-73
2022/01/13 02:49:36;;;;;;;34.30;13.90;;;;;;;;;;5042225;28;20702;-75
2022/01/13 02:52:04;;;;;;;46.23;14.03;;;;;;;;;;5037022;28;20305;-75
2022/01/13 02:54:32;;;;;;;35.07;14.10;;;;;;;;;;5044757;28;20221;-75
2022/01/13 02:57:00;;;;;;;36.87;13.70;;;;;;;;;;5039928;28;20476;-73
2022/01/13 02:59:27;;;;;;;43.73;14.60;;;;;;;;;;5040823;28;20235;-74
2022/01/13 03:01:54;;;;;;;38.50;14.27;;;;;;;;;;5035990;28;20202;-76
2022/01/13 03:04:23;;;;;;;38.43;13.47;;;;;;;;;;5034113;28;20294;-75
2022/01/13 03:06:50;;;;;;;34.43;12.97;;;;;;;;;;5041303;28;20832;-75
2022/01/13 03:09:20;;;;;;;33.47;12.93;;;;;;;;;;5039783;28;20258;-75
2022/01/13 03:11:50;;;;;;;34.17;12.93;;;;;;;;;;5033213;28;20286;-76
2022/01/13 03:14:17;;;;;;;35.07;13.30;;;;;;;;;;5040553;28;20207;-76
2022/01/13 03:16:45;;;;;;;30.53;11.70;;;;;;;;;;5034088;28;20313;-76
2022/01/13 03:19:13;;;;;;;33.57;12.83;;;;;;;;;;5034855;28;20222;-75
2022/01/13 03:21:40;;;;;;;34.17;13.43;;;;;;;;;;5038552;28;20474;-75
2022/01/13 03:24:10;;;;;;;32.70;13.10;;;;;;;;;;5037134;28;20274;-73
2022/01/13 03:26:37;;;;;;;37.87;13.73;;;;;;;;;;5039677;28;20255;-76
2022/01/13 03:29:15;;;;;;;30.47;11.43;;;;;;;;;;5044413;28;20234;-74
2022/01/13 03:31:43;;;;;;;38.63;14.10;;;;;;;;;;5039418;28;20211;-75
2022/01/13 03:34:11;;;;;;;33.07;13.53;;;;;;;;;;5040674;28;20561;-75
2022/01/13 03:36:38;;;;;;;32.93;13.20;;;;;;;;;;5039627;28;20264;-75
2022/01/13 03:39:06;;;;;;;37.67;14.73;;;;;;;;;;5035731;28;20202;-75
2022/01/13 03:41:33;;;;;;;39.50;14.50;;;;;;;;;;5041465;28;20464;-75
2022/01/13 03:44:05;;;;;;;37.10;13.23;;;;;;;;;;5040804;28;20302;-75
2022/01/13 03:46:34;;;;;;;37.20;13.27;;;;;;;;;;5037375;28;20575;-75
2022/01/13 03:49:01;;;;;;;35.23;13.07;;;;;;;;;;5034504;28;20551;-75
2022/01/13 03:51:50;;;;;;;34.90;13.63;;;;;;;;;;5039453;28;20559;-75
2022/01/13 03:54:36;;;;;;;41.73;14.07;;;;;;;;;;5041595;28;20310;-76
2022/01/13 03:57:22;;;;;;;40.00;14.93;;;;;;;;;;5040875;28;20230;-75
2022/01/13 04:00:07;;;;;;;39.37;13.47;;;;;;;;;;5038086;28;20799;-75
2022/01/13 04:02:36;;;;;;;40.83;15.00;;;;;;;;;;5009012;28;20210;-75
2022/01/13 04:05:03;;;;;;;42.27;14.33;;;;;;;;;;5040600;28;20521;-75
2022/01/13 04:07:30;;;;;;;43.53;13.90;;;;;;;;;;5039586;28;20258;-77
2022/01/13 04:10:13;;;;;;;38.87;13.67;;;;;;;;;;5038344;28;20494;-76
2022/01/13 04:12:40;;;;;;;37.50;13.93;;;;;;;;;;5036448;28;20207;-76
2022/01/13 04:15:12;;;;;;;36.60;13.97;;;;;;;;;;5041416;28;20571;-76
2022/01/13 04:17:40;;;;;;;36.40;13.90;;;;;;;;;;5039260;28;20225;-75
2022/01/13 04:20:09;;;;;;;39.53;12.90;;;;;;;;;;5039888;28;20746;-75
2022/01/13 04:22:36;;;;;;;30.77;11.47;;;;;;;;;;5037145;28;20578;-77
2022/01/13 04:25:05;;;;;;;33.50;12.30;;;;;;;;;;5039185;28;20234;-76
2022/01/13 04:27:38;;;;;;;35.67;13.50;;;;;;;;;;5076734;22;20599;-83
2022/01/13 04:30:34;;;;;;;33.47;12.90;;;;;;;;;;5064506;28;20507;-83
2022/01/13 04:33:03;;;;;;;32.10;12.43;;;;;;;;;;5065867;28;20228;-84
2022/01/13 04:35:30;;;;;;;32.63;12.17;;;;;;;;;;5067542;28;20202;-84
2022/01/13 04:37:57;;;;;;;29.83;11.07;;;;;;;;;;5083273;28;20293;-84
2022/01/13 04:40:24;;;;;;;32.20;11.80;;;;;;;;;;5088584;28;20274;-85
2022/01/13 04:42:54;;;;;;;30.17;12.03;;;;;;;;;;5084419;28;20487;-84
2022/01/13 04:45:22;;;;;;;29.43;11.40;;;;;;;;;;5088543;28;20231;-84
2022/01/13 04:47:50;;;;;;;33.17;11.83;;;;;;;;;;5086378;28;20565;-84
2022/01/13 04:50:18;;;;;;;30.10;10.20;;;;;;;;;;5086209;28;20237;-84
2022/01/13 04:52:45;;;;;;;30.27;11.50;;;;;;;;;;5086003;28;20697;-84
2022/01/13 04:55:20;;;;;;;27.10;10.87;;;;;;;;;;5082966;28;20273;-85
2022/01/13 04:57:48;;;;;;;31.90;10.80;;;;;;;;;;5084544;28;20222;-82
2022/01/13 05:00:15;;;;;;;30.23;11.17;;;;;;;;;;5084282;28;20465;-82
2022/01/13 05:02:42;;;;;;;28.73;10.67;;;;;;;;;;5085350;28;20840;-83
2022/01/13 05:05:10;;;;;;;32.33;11.97;;;;;;;;;;5083790;28;20247;-82
2022/01/13 05:07:39;;;;;;;33.03;12.77;;;;;;;;;;5080913;28;20225;-83
2022/01/13 05:10:07;;;;;;;31.67;12.37;;;;;;;;;;5082994;28;20206;-83
2022/01/13 05:12:38;;;;;;;36.67;12.97;;;;;;;;;;5079802;28;20673;-83
2022/01/13 05:15:08;;;;;;;33.83;11.80;;;;;;;;;;5084627;28;20447;-82
2022/01/13 05:18:01;;;;;;;35.10;12.97;;;;;;;;;;5084713;28;20666;-83
2022/01/13 05:20:37;;;;;;;40.63;12.97;;;;;;;;;;5083558;28;20468;-84
2022/01/13 05:23:05;;;;;;;39.80;13.60;;;;;;;;;;5084408;28;20526;-84
2022/01/13 05:25:33;;;;;;;36.50;12.93;;;;;;;;;;5086414;28;20221;-83
2022/01/13 05:28:00;;;;;;;35.67;13.30;;;;;;;;;;5089315;28;20568;-83
2022/01/13 05:30:27;;;;;;;34.47;13.00;;;;;;;;;;5092346;28;20297;-83
2022/01/13 05:32:56;;;;;;;31.70;12.57;;;;;;;;;;5086659;28;20209;-83
2022/01/13 05:35:23;;;;;;;39.10;13.93;;;;;;;;;;5088956;28;20271;-83
2022/01/13 05:37:51;;;;;;;40.40;13.57;;;;;;;;;;5089410;28;20225;-84
2022/01/13 05:40:19;;;;;;;39.23;13.80;;;;;;;;;;5093443;28;20451;-84
2022/01/13 05:42:54;;;;;;;38.63;13.30;;;;;;;;;;5088412;28;20199;-84
2022/01/13 05:45:28;;;;;;;38.57;12.40;;;;;;;;;;5091190;28;20473;-83
2022/01/13 05:47:55;;;;;;;39.23;14.17;;;;;;;;;;5092389;28;20225;-84
2022/01/13 05:50:22;;;;;;;36.23;13.53;;;;;;;;;;5086925;28;20224;-84
2022/01/13 05:52:50;;;;;;;36.40;13.63;;;;;;;;;;5087317;28;20580;-84
2022/01/13 05:55:20;;;;;;;40.70;14.23;;;;;;;;;;5087306;28;20694;-85
2022/01/13 05:57:47;;;;;;;36.53;13.20;;;;;;;;;;5091658;28;20700;-85
2022/01/13 06:00:15;;;;;;;37.87;13.07;;;;;;;;;;5090165;28;20676;-85
2022/01/13 06:02:43;;;;;;;43.47;14.47;;;;;;;;;;5090299;28;20468;-84
2022/01/13 06:05:11;;;;;;;40.90;14.57;;;;;;;;;;5090067;28;20205;-84
2022/01/13 06:07:38;;;;;;;40.20;13.30;;;;;;;;;;5093075;28;20555;-84
2022/01/13 06:10:07;;;;;;;40.03;13.20;;;;;;;;;;5087519;28;20669;-85
2022/01/13 06:12:37;;;;;;;41.13;13.17;;;;;;;;;;5086086;28;20207;-85
2022/01/13 06:15:05;;;;;;;38.37;13.47;;;;;;;;;;5089271;28;21002;-86
2022/01/13 06:17:32;;;;;;;36.07;12.73;;;;;;;;;;5094696;28;20987;-85
2022/01/13 06:20:00;;;;;;;45.17;14.60;;;;;;;;;;5091403;28;20473;-85
2022/01/13 06:22:28;;;;;;;37.40;13.43;;;;;;;;;;5089984;28;20525;-86
2022/01/13 06:24:56;;;;;;;38.80;13.60;;;;;;;;;;5088649;28;20197;-86
2022/01/13 06:27:23;;;;;;;40.63;12.93;;;;;;;;;;5092660;28;20484;-85
2022/01/13 06:29:53;;;;;;;43.93;14.10;;;;;;;;;;5090440;28;20210;-86
2022/01/13 06:32:20;;;;;;;43.10;14.47;;;;;;;;;;5084723;28;20202;-86
2022/01/13 06:34:48;;;;;;;39.50;14.90;;;;;;;;;;5086882;28;20212;-84
2022/01/13 06:37:15;;;;;;;42.77;15.73;;;;;;;;;;5090217;28;20222;-86
2022/01/13 06:39:42;;;;;;;43.77;13.80;;;;;;;;;;5088777;28;20265;-87
2022/01/13 06:42:10;;;;;;;39.23;14.10;;;;;;;;;;5093321;28;20217;-85
2022/01/13 06:44:37;;;;;;;46.40;15.27;;;;;;;;;;5085478;28;20213;-86
2022/01/13 06:47:07;;;;;;;46.00;15.37;;;;;;;;;;5083519;28;20484;-85
2022/01/13 06:49:35;;;;;;;45.43;16.30;;;;;;;;;;5083592;28;20460;-84
2022/01/13 06:52:03;;;;;;;44.73;15.93;;;;;;;;;;5089632;28;20210;-86
2022/01/13 06:54:30;;;;;;;44.53;15.10;;;;;;;;;;5090554;28;20202;-83
2022/01/13 06:56:57;;;;;;;41.80;15.93;;;;;;;;;;5090625;28;20225;-83
2022/01/13 06:59:25;;;;;;;45.70;16.90;;;;;;;;;;5089483;28;20577;-83
2022/01/13 07:01:53;;;;;;;45.80;15.93;;;;;;;;;;5088182;28;20214;-82
2022/01/13 07:04:21;;;;;;;44.70;15.13;;;;;;;;;;5089701;28;20297;-84
2022/01/13 07:06:49;;;;;;;49.47;16.43;;;;;;;;;;5090913;28;20282;-84
2022/01/13 07:09:18;;;;;;;48.50;17.07;;;;;;;;;;5089488;28;20205;-83
2022/01/13 07:11:46;;;;;;;52.63;16.77;;;;;;;;;;5087302;28;20205;-84
2022/01/13 07:14:13;;;;;;;50.00;15.63;;;;;;;;;;5090925;28;20221;-84
2022/01/13 07:16:41;;;;;;;47.63;15.33;;;;;;;;;;5093972;28;20225;-85
2022/01/13 07:19:10;;;;;;;47.30;14.03;;;;;;;;;;5087760;28;20872;-84
2022/01/13 07:21:40;;;;;;;44.83;15.37;;;;;;;;;;5091084;28;20527;-84
2022/01/13 07:24:07;;;;;;;48.00;15.27;;;;;;;;;;5089916;28;20265;-84
2022/01/13 07:26:34;;;;;;;47.10;14.40;;;;;;;;;;5087656;28;20229;-85
2022/01/13 07:29:01;;;;;;;48.87;15.43;;;;;;;;;;5086157;28;20225;-84
2022/01/13 07:31:29;;;;;;;44.93;15.17;;;;;;;;;;5087701;28;20511;-84
2022/01/13 07:33:56;;;;;;;47.10;15.83;;;;;;;;;;5082591;28;20547;-84
2022/01/13 07:36:23;;;;;;;46.00;16.27;;;;;;;;;;5085708;28;21018;-84
2022/01/13 07:38:54;;;;;;;51.97;14.87;;;;;;;;;;5082575;28;20206;-84
2022/01/13 07:41:21;;;;;;;44.70;15.80;;;;;;;;;;5085228;28;20193;-85
2022/01/13 07:43:53;;;;;;;48.60;16.13;;;;;;;;;;5089471;28;20202;-85
2022/01/13 07:46:21;;;;;;;42.13;14.73;;;;;;;;;;5092085;28;20750;-84
2022/01/13 07:48:48;;;;;;;49.93;15.97;;;;;;;;;;5088829;28;20211;-84
2022/01/13 07:51:16;;;;;;;43.77;15.27;;;;;;;;;;5093139;28;20213;-85
2022/01/13 07:53:43;;;;;;;41.83;14.90;;;;;;;;;;5086713;28;20490;-84
2022/01/13 07:56:12;;;;;;;47.60;15.40;;;;;;;;;;5087518;28;20203;-86
2022/01/13 07:58:40;;;;;;;42.40;15.17;;;;;;;;;;5087401;28;20210;-86
2022/01/13 08:01:08;;;;;;;42.17;15.20;;;;;;;;;;5091289;28;20201;-85
2022/01/13 08:03:35;;;;;;;130.70;47.20;;;;;;;;;;5082897;28;20282;-86
2022/01/13 08:06:04;;;;;;;81.67;29.10;;;;;;;;;;5085898;28;20661;-85
2022/01/13 08:11:19;;;;;;;79.97;28.73;;;;;;;;;;5089661;28;20201;-87
2022/01/13 08:13:46;;;;;;;47.43;16.10;;;;;;;;;;5091112;28;20552;-84
2022/01/13 08:16:16;;;;;;;47.43;17.30;;;;;;;;;;5092075;28;20752;-84
2022/01/13 08:21:29;;;;;;;138.93;53.83;;;;;;;;;;5085022;28;20295;-85
2022/01/13 08:23:56;;;;;;;41.80;16.27;;;;;;;;;;5088102;28;20210;-84
2022/01/13 08:26:26;;;;;;;46.90;15.43;;;;;;;;;;5091839;28;20279;-84
2022/01/13 08:28:54;;;;;;;46.93;15.97;;;;;;;;;;5092785;28;20221;-83
2022/01/13 08:31:21;;;;;;;43.20;15.73;;;;;;;;;;5090804;28;20225;-83
2022/01/13 08:33:48;;;;;;;41.10;15.30;;;;;;;;;;5089879;28;20209;-83
2022/01/13 08:36:16;;;;;;;44.23;15.90;;;;;;;;;;5092507;28;20488;-81
2022/01/13 08:38:43;;;;;;;44.60;14.87;;;;;;;;;;5091459;28;20236;-83
2022/01/13 08:41:10;;;;;;;49.60;16.00;;;;;;;;;;5091148;28;20274;-83
2022/01/13 08:43:39;;;;;;;163.33;60.33;;;;;;;;;;5085603;28;20487;-83
2022/01/13 08:46:06;;;;;;;73.77;27.20;;;;;;;;;;5090729;28;20209;-83
2022/01/13 08:48:34;;;;;;;46.83;17.23;;;;;;;;;;5093397;28;20202;-82
2022/01/13 08:51:01;;;;;;;45.87;16.47;;;;;;;;;;5087537;28;20232;-83
2022/01/13 08:53:29;;;;;;;49.67;16.37;;;;;;;;;;5090814;28;20252;-82
2022/01/13 08:55:58;;;;;;;44.60;15.17;;;;;;;;;;5094881;28;20452;-82
2022/01/13 08:58:25;;;;;;;50.77;16.47;;;;;;;;;;5093126;28;20812;-83
2022/01/13 09:00:56;;;;;;;46.30;15.83;;;;;;;;;;5099878;28;20759;-84
2022/01/13 09:03:23;;;;;;;50.00;16.63;;;;;;;;;;5094379;28;20232;-82
2022/01/13 09:05:50;;;;;;;45.27;15.93;;;;;;;;;;5092107;28;20244;-84
2022/01/13 09:08:17;;;;;;;44.00;14.03;;;;;;;;;;5096060;28;20221;-84
2022/01/13 09:10:45;;;;;;;38.43;13.57;;;;;;;;;;5097111;28;20208;-83
2022/01/13 09:13:14;;;;;;;40.57;14.57;;;;;;;;;;5093036;28;20288;-83
2022/01/13 09:15:45;;;;;;;38.03;13.13;;;;;;;;;;5089352;28;20227;-85
2022/01/13 09:18:18;;;;;;;35.63;12.97;;;;;;;;;;5094633;28;20308;-84
2022/01/13 09:20:45;;;;;;;33.20;12.10;;;;;;;;;;5090649;28;20241;-84
2022/01/13 09:23:13;;;;;;;76.53;14.60;;;;;;;;;;5089081;28;20210;-85
2022/01/13 09:25:40;;;;;;;33.10;12.47;;;;;;;;;;5089086;28;20259;-85
2022/01/13 09:28:09;;;;;;;35.27;13.60;;;;;;;;;;5089308;28;20768;-85
2022/01/13 09:30:36;;;;;;;32.20;12.03;;;;;;;;;;5087216;28;20212;-84
2022/01/13 09:33:03;;;;;;;33.17;12.33;;;;;;;;;;5085844;28;20212;-84
2022/01/13 09:35:32;;;;;;;36.33;12.90;;;;;;;;;;5089066;28;20217;-85
2022/01/13 09:38:00;;;;;;;36.47;12.23;;;;;;;;;;5088426;28;20244;-85
2022/01/13 09:40:27;;;;;;;35.83;12.80;;;;;;;;;;5085782;28;20730;-85
2022/01/13 09:42:55;;;;;;;31.17;11.20;;;;;;;;;;5087412;28;20210;-84
2022/01/13 09:45:22;;;;;;;31.50;11.67;;;;;;;;;;5086451;28;20206;-85
2022/01/13 09:47:50;;;;;;;30.80;11.03;;;;;;;;;;5090906;28;20233;-85
2022/01/13 09:50:18;;;;;;;32.63;11.63;;;;;;;;;;5093644;28;20627;-84
2022/01/13 09:52:48;;;;;;;29.50;11.17;;;;;;;;;;5092479;28;20206;-85
2022/01/13 09:55:16;;;;;;;30.33;11.93;;;;;;;;;;5085489;28;20199;-85
2022/01/13 09:57:44;;;;;;;29.53;12.30;;;;;;;;;;5085470;28;20279;-85
2022/01/13 10:00:12;;;;;;;35.47;11.20;;;;;;;;;;5085737;28;20253;-84
2022/01/13 10:02:43;;;;;;;32.57;12.20;;;;;;;;;;5085803;28;20203;-84
2022/01/13 10:05:10;;;;;;;33.27;12.80;;;;;;;;;;5082576;28;20212;-84
2022/01/13 10:07:41;;;;;;;40.27;17.03;;;;;;;;;;5091294;28;20222;-84
2022/01/13 10:10:13;;;;;;;35.97;13.17;;;;;;;;;;5082879;28;20205;-85
2022/01/13 10:12:42;;;;;;;35.13;12.20;;;;;;;;;;5088976;28;20213;-86
2022/01/13 10:17:55;;;;;;;31.97;11.57;;;;;;;;;;5090262;28;20256;-86
2022/01/13 10:20:24;;;;;;;33.17;12.90;;;;;;;;;;5087351;28;20226;-86
2022/01/13 10:22:51;;;;;;;36.27;13.53;;;;;;;;;;5088341;28;20210;-86
2022/01/13 10:25:30;;;;;;;29.87;11.63;;;;;;;;;;5082806;28;20241;-84
2022/01/13 10:27:58;;;;;;;33.93;11.80;;;;;;;;;;5083796;22;20225;-85
2022/01/13 10:30:26;;;;;;;33.40;12.40;;;;;;;;;;5069772;28;20312;-87
2022/01/13 10:32:55;;;;;;;42.17;12.67;;;;;;;;;;5072365;28;20195;-85
2022/01/13 10:35:23;;;;;;;34.83;12.30;;;;;;;;;;5070507;28;20206;-86
2022/01/13 10:37:53;;;;;;;32.93;12.43;;;;;;;;;;5072028;28;20226;-86
2022/01/13 10:40:23;;;;;;;31.83;12.47;;;;;;;;;;5070622;28;20499;-86
2022/01/13 11:04:16;;;;;;;37.70;14.93;;;;;;;;;;5010656;28;20299;-86
2022/01/13 11:06:44;;;;;;;35.07;13.23;;;;;;;;;;5062396;28;20253;-84
2022/01/13 11:09:25;;;;;;;36.63;15.00;;;;;;;;;;5072692;28;20226;-86
2022/01/13 11:12:20;;;;;;;33.97;13.63;;;;;;;;;;5074502;28;20612;-85
2022/01/13 11:14:52;;;;;;;32.93;12.07;;;;;;;;;;5068597;28;20260;-86
2022/01/13 11:17:33;;;;;;;35.83;12.57;;;;;;;;;;5071148;28;20241;-85
2022/01/13 11:20:02;;;;;;;30.47;11.93;;;;;;;;;;5070364;28;20611;-85
2022/01/13 11:22:34;;;;;;;30.67;12.40;;;;;;;;;;5072092;28;20237;-84
2022/01/13 11:25:01;;;;;;;35.70;14.17;;;;;;;;;;5069888;28;20804;-85
2022/01/13 11:27:29;;;;;;;35.20;12.63;;;;;;;;;;5068103;28;20226;-84
2022/01/13 11:36:15;;;;;;;33.53;12.93;;;;;;;;;;4929807;29;20203;-84
2022/01/13 11:38:55;;;;;;;33.47;11.93;;;;;;;;;;5058880;28;20225;-85
2022/01/13 11:41:22;;;;;;;29.53;11.40;;;;;;;;;;5065409;28;20477;-86
2022/01/13 11:43:50;;;;;;;34.40;12.57;;;;;;;;;;5064153;28;20525;-86
2022/01/13 11:46:22;;;;;;;30.93;11.20;;;;;;;;;;5067113;28;20209;-84
2022/01/13 11:48:57;;;;;;;30.57;11.83;;;;;;;;;;5067603;28;20309;-84
2022/01/13 11:51:28;;;;;;;26.80;11.57;;;;;;;;;;5068101;28;20203;-85
2022/01/13 11:53:56;;;;;;;38.27;17.67;;;;;;;;;;5062491;28;20214;-85
2022/01/13 11:59:14;;;;;;;31.50;11.77;;;;;;;;;;5026850;28;20262;-85
2022/01/13 12:01:42;;;;;;;29.47;11.40;;;;;;;;;;5070748;28;20285;-85
2022/01/13 12:04:09;;;;;;;29.67;11.90;;;;;;;;;;5073432;28;20198;-85
2022/01/13 12:06:42;;;;;;;31.67;11.40;;;;;;;;;;5071051;28;20199;-84
2022/01/13 12:09:10;;;;;;;30.93;10.67;;;;;;;;;;5075000;28;20716;-86
2022/01/13 12:11:42;;;;;;;30.13;13.63;;;;;;;;;;5075166;28;20237;-85
2022/01/13 12:14:35;;;;;;;32.10;11.43;;;;;;;;;;5071862;28;20214;-86
2022/01/13 12:17:05;;;;;;;29.97;10.63;;;;;;;;;;5072826;28;20233;-85
2022/01/13 12:19:37;;;;;;;27.27;11.00;;;;;;;;;;5074374;28;20898;-86
2022/01/13 12:22:09;;;;;;;26.53;11.40;;;;;;;;;;5073850;28;20237;-85
2022/01/13 12:24:51;;;;;;;29.27;11.47;;;;;;;;;;5070474;28;20221;-85
2022/01/13 12:27:18;;;;;;;25.93;11.67;;;;;;;;;;5073516;28;20233;-86
2022/01/13 12:29:47;;;;;;;25.67;10.13;;;;;;;;;;5073347;28;20214;-86
2022/01/13 12:32:17;;;;;;;25.70;9.97;;;;;;;;;;5074453;28;20238;-85
2022/01/13 12:34:48;;;;;;;27.07;11.03;;;;;;;;;;5074806;28;20206;-85
2022/01/13 12:37:25;;;;;;;32.60;12.53;;;;;;;;;;5076111;28;20225;-83
2022/01/13 12:39:56;;;;;;;25.60;10.13;;;;;;;;;;5069818;28;20786;-84
2022/01/13 12:48:20;;;;;;;26.77;9.93;;;;;;;;;;5075615;28;20229;-84
2022/01/13 12:50:48;;;;;;;25.03;10.23;;;;;;;;;;5076559;28;20214;-85
2022/01/13 12:53:18;;;;;;;25.10;9.90;;;;;;;;;;5075985;28;20291;-84
2022/01/13 12:55:46;;;;;;;24.20;10.00;;;;;;;;;;5077147;28;20317;-84
2022/01/13 12:58:14;;;;;;;25.40;10.70;;;;;;;;;;5076567;28;20248;-84
2022/01/13 13:00:41;;;;;;;35.43;14.80;;;;;;;;;;5076537;28;20236;-84
2022/01/13 13:03:08;;;;;;;35.67;15.57;;;;;;;;;;5074456;28;20198;-83
2022/01/13 13:05:45;;;;;;;24.30;9.87;;;;;;;;;;5074411;28;20212;-84
2022/01/13 13:08:14;;;;;;;24.50;10.03;;;;;;;;;;5076634;28;20253;-85
2022/01/13 13:10:47;;;;;;;26.80;13.03;;;;;;;;;;5076960;28;20222;-84
2022/01/13 13:13:16;;;;;;;70.60;35.70;;;;;;;;;;5072546;28;20214;-84
2022/01/13 13:15:51;;;;;;;23.63;8.70;;;;;;;;;;5073764;28;20198;-84
2022/01/13 13:18:20;;;;;;;19.17;8.77;;;;;;;;;;5076762;28;20221;-84
2022/01/13 13:20:49;;;;;;;21.07;8.27;;;;;;;;;;5076756;28;20206;-84
2022/01/13 13:23:18;;;;;;;23.80;10.77;;;;;;;;;;5074619;28;20217;-83
2022/01/13 13:25:47;;;;;;;22.17;9.10;;;;;;;;;;5075484;28;20597;-83
2022/01/13 13:28:36;;;;;;;28.73;12.13;;;;;;;;;;5072722;28;20261;-83
2022/01/13 13:31:07;;;;;;;26.03;12.07;;;;;;;;;;5073556;28;20208;-84
2022/01/13 13:33:40;;;;;;;27.40;12.97;;;;;;;;;;5074337;28;20221;-84
2022/01/13 13:36:08;;;;;;;33.10;16.00;;;;;;;;;;5074597;28;20252;-84
2022/01/13 13:38:49;;;;;;;21.47;9.30;;;;;;;;;;5073789;28;20253;-84
2022/01/13 13:41:18;;;;;;;22.83;7.77;;;;;;;;;;5075080;28;20644;-82
2022/01/13 13:43:45;;;;;;;17.37;6.93;;;;;;;;;;5075300;28;20542;-83
2022/01/13 13:46:14;;;;;;;19.97;8.77;;;;;;;;;;5074911;28;20688;-84
2022/01/13 13:48:42;;;;;;;28.87;11.43;;;;;;;;;;5074014;28;20287;-83
2022/01/13 13:51:09;;;;;;;21.57;9.63;;;;;;;;;;5075896;28;20716;-83
2022/01/13 13:53:36;;;;;;;21.87;8.90;;;;;;;;;;5072527;28;20199;-83
2022/01/13 13:56:05;;;;;;;17.87;7.60;;;;;;;;;;5075087;28;20285;-84
2022/01/13 13:58:33;;;;;;;23.13;8.13;;;;;;;;;;5076375;28;20255;-84
2022/01/13 14:01:01;;;;;;;17.27;7.23;;;;;;;;;;5074468;28;20225;-84
2022/01/13 14:03:39;;;;;;;20.10;7.50;;;;;;;;;;5072920;28;20206;-83
2022/01/13 14:06:07;;;;;;;21.20;7.20;;;;;;;;;;5071487;28;20708;-85
2022/01/13 14:08:35;;;;;;;16.73;6.83;;;;;;;;;;5070686;28;20253;-84
2022/01/13 14:11:08;;;;;;;15.67;7.17;;;;;;;;;;5072673;28;20214;-84
2022/01/13 14:13:37;;;;;;;26.23;10.23;;;;;;;;;;5069179;28;20207;-84
2022/01/13 14:16:05;;;;;;;27.50;9.70;;;;;;;;;;5076735;28;20221;-84
2022/01/13 14:18:36;;;;;;;22.93;9.53;;;;;;;;;;5075177;28;20321;-84
2022/01/13 14:21:04;;;;;;;27.63;10.63;;;;;;;;;;5071313;28;20213;-84
2022/01/13 14:23:33;;;;;;;32.27;10.83;;;;;;;;;;5075552;28;20297;-84
2022/01/13 14:26:03;;;;;;;20.17;8.00;;;;;;;;;;5075673;28;20277;-85
2022/01/13 14:28:31;;;;;;;15.60;7.67;;;;;;;;;;5074734;28;20685;-85
2022/01/13 14:31:03;;;;;;;23.23;8.90;;;;;;;;;;5076757;28;20203;-84
2022/01/13 14:33:32;;;;;;;21.37;8.33;;;;;;;;;;5076667;28;20203;-85
2022/01/13 14:36:04;;;;;;;24.43;9.47;;;;;;;;;;5076037;28;20213;-85
2022/01/13 14:38:49;;;;;;;21.73;9.83;;;;;;;;;;5074510;28;20231;-84
2022/01/13 14:41:17;;;;;;;22.27;9.03;;;;;;;;;;5075182;28;20293;-85
2022/01/13 14:43:57;;;;;;;22.03;8.63;;;;;;;;;;5072577;28;20308;-85
2022/01/13 14:46:26;;;;;;;22.33;7.97;;;;;;;;;;5075381;28;20210;-85
2022/01/13 14:48:53;;;;;;;16.13;7.13;;;;;;;;;;5074786;28;20305;-85
2022/01/13 14:51:21;;;;;;;17.60;6.37;;;;;;;;;;5077694;28;20205;-85
2022/01/13 14:53:48;;;;;;;15.50;6.73;;;;;;;;;;5074918;28;20645;-83
2022/01/13 14:56:16;;;;;;;21.63;8.87;;;;;;;;;;5075294;28;20270;-85
2022/01/13 14:58:44;;;;;;;21.87;9.17;;;;;;;;;;5071973;28;20226;-84
2022/01/13 15:01:12;;;;;;;22.43;8.47;;;;;;;;;;5075568;28;20191;-86
2022/01/13 15:03:41;;;;;;;22.90;10.47;;;;;;;;;;5069397;28;20735;-85
2022/01/13 15:06:08;;;;;;;20.77;8.17;;;;;;;;;;5067729;28;20240;-84
2022/01/13 15:08:37;;;;;;;15.73;6.43;;;;;;;;;;5071386;28;20234;-84
2022/01/13 15:11:04;;;;;;;20.70;7.40;;;;;;;;;;5066367;28;20614;-84
2022/01/13 15:13:32;;;;;;;21.70;6.97;;;;;;;;;;5070383;28;20321;-83
2022/01/13 15:15:59;;;;;;;29.33;8.83;;;;;;;;;;5068330;28;20241;-83
2022/01/13 15:18:28;;;;;;;17.77;6.40;;;;;;;;;;5069925;28;20224;-84
2022/01/13 15:20:58;;;;;;;21.37;7.00;;;;;;;;;;5071934;28;20260;-83